createdAt,value
2023-02-09T00:01:13.922Z,17.60
2023-02-09T00:03:42.804Z,15.57
2023-02-09T00:06:13.649Z,16.00
2023-02-09T00:08:41.500Z,16.40
2023-02-09T00:11:20.175Z,18.20
2023-02-09T00:13:47.457Z,19.50
2023-02-09T00:16:14.467Z,20.90
2023-02-09T00:18:41.717Z,22.77
2023-02-09T00:21:10.959Z,23.40
2023-02-09T00:23:40.838Z,22.07
2023-02-09T00:26:11.823Z,19.90
2023-02-09T00:28:39.146Z,19.93
2023-02-09T00:31:08.220Z,19.30
2023-02-09T00:33:36.521Z,18.03
2023-02-09T00:36:05.673Z,21.13
2023-02-09T00:38:33.644Z,20.67
2023-02-09T00:41:00.658Z,21.40
2023-02-09T00:43:28.142Z,20.30
2023-02-09T00:45:55.218Z,23.03
2023-02-09T00:48:22.805Z,22.00
2023-02-09T00:50:53.428Z,20.87
2023-02-09T00:53:21.910Z,18.53
2023-02-09T00:55:49.352Z,19.60
2023-02-09T00:58:17.488Z,19.73
2023-02-09T01:00:44.875Z,17.90
2023-02-09T01:03:12.548Z,19.63
2023-02-09T01:05:41.343Z,17.80
2023-02-09T01:08:09.193Z,18.17
2023-02-09T01:10:37.846Z,19.20
2023-02-09T01:13:05.190Z,18.37
2023-02-09T01:15:32.320Z,17.80
2023-02-09T01:18:00.243Z,20.90
2023-02-09T01:20:27.665Z,19.37
2023-02-09T01:22:55.070Z,19.50
2023-02-09T01:25:22.040Z,17.30
2023-02-09T01:27:49.421Z,16.60
2023-02-09T01:30:17.115Z,17.97
2023-02-09T01:32:44.411Z,19.23
2023-02-09T01:35:11.650Z,18.17
2023-02-09T01:37:38.939Z,19.17
2023-02-09T01:40:06.477Z,16.57
2023-02-09T01:42:33.836Z,16.83
2023-02-09T01:45:18.781Z,19.03
2023-02-09T01:47:50.785Z,17.57
2023-02-09T01:50:18.501Z,15.93
2023-02-09T01:52:48.193Z,17.57
2023-02-09T01:55:19.922Z,16.77
2023-02-09T01:57:54.255Z,17.77
2023-02-09T02:00:22.722Z,18.07
2023-02-09T02:02:56.143Z,16.70
2023-02-09T02:05:25.194Z,16.10
2023-02-09T02:08:03.492Z,16.70
2023-02-09T02:10:31.429Z,18.07
2023-02-09T02:12:58.758Z,17.43
2023-02-09T02:15:30.033Z,17.67
2023-02-09T02:18:03.243Z,17.60
2023-02-09T02:20:39.089Z,15.93
2023-02-09T02:23:09.058Z,16.37
2023-02-09T02:26:04.145Z,18.67
2023-02-09T02:28:51.480Z,18.87
2023-02-09T02:31:56.179Z,16.57
2023-02-09T02:34:41.817Z,16.37
2023-02-09T02:37:18.400Z,16.03
2023-02-09T02:39:51.518Z,15.73
2023-02-09T02:43:02.893Z,19.87
2023-02-09T02:45:42.136Z,18.00
2023-02-09T02:48:46.915Z,17.17
2023-02-09T02:51:35.417Z,17.20
2023-02-09T02:54:10.625Z,17.33
2023-02-09T02:56:42.793Z,17.20
2023-02-09T02:59:14.052Z,17.83
2023-02-09T03:01:49.578Z,18.90
2023-02-09T03:04:17.285Z,19.43
2023-02-09T03:06:44.564Z,15.03
2023-02-09T03:09:12.082Z,16.17
2023-02-09T03:11:46.348Z,16.30
2023-02-09T03:14:28.014Z,18.37
2023-02-09T03:17:00.713Z,16.13
2023-02-09T03:19:30.479Z,18.10
2023-02-09T03:22:06.171Z,19.37
2023-02-09T03:25:11.690Z,17.43
2023-02-09T03:27:52.963Z,16.33
2023-02-09T03:30:21.912Z,18.97
2023-02-09T03:32:49.291Z,16.80
2023-02-09T03:35:19.311Z,17.67
2023-02-09T03:37:46.582Z,17.27
2023-02-09T03:40:13.734Z,18.90
2023-02-09T03:42:40.995Z,18.70
2023-02-09T03:45:08.965Z,18.10
2023-02-09T03:47:36.252Z,18.73
2023-02-09T03:50:04.155Z,19.20
2023-02-09T03:52:31.691Z,17.83
2023-02-09T03:54:58.747Z,17.97
2023-02-09T03:57:26.032Z,17.57
2023-02-09T03:59:53.064Z,18.87
2023-02-09T04:02:20.341Z,18.43
2023-02-09T04:04:47.325Z,21.30
2023-02-09T04:07:14.781Z,17.03
2023-02-09T04:09:41.691Z,16.77
2023-02-09T04:12:08.960Z,16.60
2023-02-09T04:14:35.957Z,17.70
2023-02-09T04:17:03.368Z,16.00
2023-02-09T04:19:30.284Z,18.93
2023-02-09T04:21:57.569Z,17.40
2023-02-09T04:24:24.584Z,18.20
2023-02-09T04:26:51.916Z,17.73
2023-02-09T04:29:18.876Z,16.63
2023-02-09T04:31:46.198Z,18.83
2023-02-09T04:34:13.188Z,19.67
2023-02-09T04:36:40.542Z,17.57
2023-02-09T04:39:07.544Z,19.07
2023-02-09T04:41:34.861Z,18.37
2023-02-09T04:44:01.804Z,18.37
2023-02-09T04:46:29.088Z,18.10
2023-02-09T04:48:56.075Z,18.47
2023-02-09T04:51:23.587Z,18.80
2023-02-09T04:53:50.533Z,18.10
2023-02-09T04:56:18.347Z,17.73
2023-02-09T04:59:04.011Z,18.00
2023-02-09T05:01:32.247Z,17.90
2023-02-09T05:03:59.332Z,16.90
2023-02-09T05:06:26.782Z,17.40
2023-02-09T05:08:53.725Z,18.07
2023-02-09T05:11:21.004Z,18.60
2023-02-09T05:13:48.844Z,16.43
2023-02-09T05:16:17.806Z,18.20
2023-02-09T05:18:45.489Z,17.20
2023-02-09T05:21:14.410Z,16.53
2023-02-09T05:23:41.801Z,17.67
2023-02-09T05:26:09.185Z,16.83
2023-02-09T05:28:36.452Z,15.87
2023-02-09T05:31:04.025Z,16.20
2023-02-09T05:33:31.108Z,16.53
2023-02-09T05:35:58.368Z,18.17
2023-02-09T05:38:25.655Z,17.77
2023-02-09T05:40:52.907Z,15.97
2023-02-09T05:43:19.931Z,16.87
2023-02-09T05:45:47.192Z,15.93
2023-02-09T05:48:14.264Z,16.23
2023-02-09T05:50:41.581Z,17.57
2023-02-09T05:53:09.275Z,15.37
2023-02-09T05:55:36.639Z,16.63
2023-02-09T05:58:04.147Z,15.43
2023-02-09T06:00:31.360Z,17.53
2023-02-09T06:02:58.933Z,16.90
2023-02-09T06:05:27.249Z,16.10
2023-02-09T06:07:54.499Z,14.37
2023-02-09T06:10:22.083Z,15.90
2023-02-09T06:12:49.064Z,16.60
2023-02-09T06:15:16.631Z,17.07
2023-02-09T06:17:43.946Z,16.47
2023-02-09T06:20:11.936Z,16.90
2023-02-09T06:22:38.976Z,18.60
2023-02-09T06:25:06.548Z,16.17
2023-02-09T06:27:33.563Z,14.87
2023-02-09T06:30:00.940Z,15.20
2023-02-09T06:32:28.004Z,16.70
2023-02-09T06:34:55.237Z,16.90
2023-02-09T06:37:22.300Z,16.87
2023-02-09T06:39:49.513Z,18.03
2023-02-09T06:42:16.523Z,15.80
2023-02-09T06:44:43.733Z,16.53
2023-02-09T06:47:10.706Z,19.10
2023-02-09T06:49:38.009Z,17.97
2023-02-09T06:52:05.349Z,16.70
2023-02-09T06:54:32.789Z,18.37
2023-02-09T06:57:00.013Z,20.80
2023-02-09T06:59:27.215Z,18.33
2023-02-09T07:01:55.097Z,19.03
2023-02-09T07:04:22.816Z,17.70
2023-02-09T07:06:49.923Z,19.60
2023-02-09T07:09:17.126Z,19.87
2023-02-09T07:11:44.163Z,20.33
2023-02-09T07:14:11.360Z,21.33
2023-02-09T07:16:38.302Z,19.87
2023-02-09T07:19:05.575Z,18.97
2023-02-09T07:21:32.530Z,19.50
2023-02-09T07:23:59.903Z,19.63
2023-02-09T07:26:26.926Z,18.73
2023-02-09T07:28:54.197Z,20.43
2023-02-09T07:31:21.535Z,22.27
2023-02-09T07:33:49.026Z,23.13
2023-02-09T07:36:18.182Z,21.93
2023-02-09T07:38:45.875Z,21.43
2023-02-09T07:41:19.581Z,19.70
2023-02-09T07:43:47.214Z,20.80
2023-02-09T07:46:16.735Z,20.73
2023-02-09T07:48:44.087Z,20.70
2023-02-09T07:51:20.012Z,21.03
2023-02-09T07:53:47.944Z,21.90
2023-02-09T07:56:14.946Z,20.23
2023-02-09T07:58:42.340Z,20.43
2023-02-09T08:01:11.819Z,20.93
2023-02-09T08:03:40.946Z,20.33
2023-02-09T08:06:19.560Z,22.57
2023-02-09T08:08:52.000Z,19.60
2023-02-09T08:11:29.206Z,20.33
2023-02-09T08:13:58.309Z,19.67
2023-02-09T08:16:29.656Z,22.00
2023-02-09T08:19:08.865Z,21.47
2023-02-09T08:21:39.980Z,21.00
2023-02-09T08:24:09.222Z,21.00
2023-02-09T08:26:36.420Z,21.70
2023-02-09T08:29:04.052Z,21.20
2023-02-09T08:31:31.255Z,21.43
2023-02-09T08:33:58.719Z,20.67
2023-02-09T08:36:26.081Z,21.13
2023-02-09T08:38:53.376Z,22.13
2023-02-09T08:41:20.880Z,22.93
2023-02-09T08:43:50.204Z,23.23
2023-02-09T08:46:18.199Z,22.03
2023-02-09T08:48:47.229Z,21.67
2023-02-09T08:51:15.535Z,22.10
2023-02-09T08:53:43.442Z,22.23
2023-02-09T08:56:10.660Z,21.77
2023-02-09T08:58:37.969Z,22.00
2023-02-09T09:01:05.627Z,22.03
2023-02-09T09:03:33.260Z,23.00
2023-02-09T09:06:06.192Z,22.47
2023-02-09T09:08:35.239Z,23.03
2023-02-09T09:11:02.725Z,21.70
2023-02-09T09:13:30.038Z,23.60
2023-02-09T09:15:57.047Z,22.03
2023-02-09T09:18:25.948Z,22.17
2023-02-09T09:20:56.172Z,22.13
2023-02-09T09:23:23.717Z,24.33
2023-02-09T09:25:50.873Z,23.20
2023-02-09T09:28:18.168Z,23.13
2023-02-09T09:30:45.328Z,21.87
2023-02-09T09:33:12.658Z,22.00
2023-02-09T09:35:39.892Z,23.07
2023-02-09T09:38:07.152Z,21.43
2023-02-09T09:40:37.082Z,23.60
2023-02-09T09:43:19.792Z,22.97
2023-02-09T09:45:48.179Z,23.27
2023-02-09T09:48:24.757Z,23.33
2023-02-09T09:50:58.745Z,23.03
2023-02-09T09:53:33.358Z,20.93
2023-02-09T09:56:07.754Z,22.43
2023-02-09T09:58:39.344Z,22.67
2023-02-09T10:01:10.395Z,24.23
2023-02-09T10:03:38.178Z,22.53
2023-02-09T10:06:20.696Z,24.23
2023-02-09T10:09:03.835Z,22.73
2023-02-09T10:11:41.422Z,23.23
2023-02-09T10:14:19.591Z,22.90
2023-02-09T10:16:46.648Z,21.67
2023-02-09T10:19:17.063Z,21.50
2023-02-09T10:21:44.251Z,22.03
2023-02-09T10:24:32.875Z,23.67
2023-02-09T10:27:05.178Z,23.27
2023-02-09T10:29:32.491Z,23.27
2023-02-09T10:32:26.854Z,22.87
2023-02-09T10:34:58.445Z,22.40
2023-02-09T10:37:39.956Z,24.17
2023-02-09T10:40:21.213Z,22.30
2023-02-09T10:42:59.446Z,21.40
2023-02-09T10:45:44.767Z,20.73
2023-02-09T10:48:11.885Z,19.47
2023-02-09T10:50:49.903Z,16.67
2023-02-09T10:53:24.738Z,16.70
2023-02-09T10:56:18.496Z,15.93
2023-02-09T10:58:51.785Z,13.77
2023-02-09T11:01:31.024Z,15.73
2023-02-09T11:04:07.201Z,16.83
2023-02-09T11:06:58.486Z,14.17
2023-02-09T11:09:30.491Z,16.60
2023-02-09T11:11:58.099Z,14.03
2023-02-09T11:14:25.472Z,14.33
2023-02-09T11:17:45.899Z,15.93
2023-02-09T11:20:23.432Z,14.67
2023-02-09T11:23:16.746Z,14.73
2023-02-09T11:25:43.950Z,15.87
2023-02-09T11:28:51.852Z,17.23
2023-02-09T11:31:34.226Z,16.43
2023-02-09T11:34:13.613Z,16.13
2023-02-09T11:36:43.834Z,16.00
2023-02-09T11:39:16.966Z,16.67
2023-02-09T11:42:14.602Z,15.30
2023-02-09T11:45:06.738Z,17.20
2023-02-09T11:47:50.487Z,16.40
2023-02-09T11:50:25.136Z,17.10
2023-02-09T11:52:59.990Z,15.20
2023-02-09T11:55:33.297Z,13.27
2023-02-09T11:58:10.853Z,13.30
2023-02-09T12:01:20.612Z,15.53
2023-02-09T12:04:20.549Z,14.20
2023-02-09T12:06:54.973Z,14.07
2023-02-09T12:10:13.110Z,13.93
2023-02-09T12:12:46.052Z,11.67
2023-02-09T12:15:18.143Z,11.93
2023-02-09T12:17:56.343Z,11.63
2023-02-09T12:20:31.727Z,11.80
2023-02-09T12:23:04.493Z,11.33
2023-02-09T12:25:34.444Z,11.70
2023-02-09T12:28:33.959Z,11.57
2023-02-09T12:31:02.579Z,12.53
2023-02-09T12:33:34.252Z,11.97
2023-02-09T12:36:10.955Z,12.37
2023-02-09T12:39:04.762Z,12.37
2023-02-09T12:41:35.883Z,11.20
2023-02-09T12:44:18.618Z,11.30
2023-02-09T12:46:48.597Z,10.27
2023-02-09T12:49:32.084Z,10.53
2023-02-09T12:53:05.648Z,11.43
2023-02-09T12:55:33.186Z,10.80
2023-02-09T12:58:00.474Z,11.10
2023-02-09T13:00:34.251Z,10.10
2023-02-09T13:03:10.982Z,11.63
2023-02-09T13:05:44.717Z,10.17
2023-02-09T13:08:19.269Z,9.37
2023-02-09T13:10:57.748Z,9.03
2023-02-09T13:13:39.592Z,10.77
2023-02-09T13:16:29.644Z,8.50
2023-02-09T13:19:21.025Z,9.10
2023-02-09T13:22:06.624Z,9.43
2023-02-09T13:24:33.894Z,10.20
2023-02-09T13:27:01.232Z,10.40
2023-02-09T13:29:32.652Z,10.97
2023-02-09T13:32:17.953Z,9.47
2023-02-09T13:34:55.719Z,10.13
2023-02-09T13:37:40.990Z,10.00
2023-02-09T13:40:29.951Z,10.83
2023-02-09T13:43:01.358Z,10.27
2023-02-09T13:45:29.028Z,10.60
2023-02-09T13:47:59.328Z,11.57
2023-02-09T13:50:33.492Z,10.87
2023-02-09T13:53:10.969Z,10.17
2023-02-09T13:55:45.648Z,9.17
2023-02-09T13:58:25.844Z,11.63
2023-02-09T14:00:58.132Z,10.27
2023-02-09T14:03:28.602Z,9.90
2023-02-09T14:06:11.273Z,9.33
2023-02-09T14:08:40.652Z,9.73
2023-02-09T14:11:43.134Z,8.43
2023-02-09T14:14:28.316Z,8.10
2023-02-09T14:17:25.886Z,9.73
2023-02-09T14:19:55.692Z,8.37
2023-02-09T14:22:34.129Z,9.77
2023-02-09T14:25:06.268Z,7.77
2023-02-09T14:27:34.893Z,10.50
2023-02-09T14:30:02.089Z,8.37
2023-02-09T14:32:38.323Z,8.20
2023-02-09T14:35:23.637Z,8.60
2023-02-09T14:37:55.704Z,7.77
2023-02-09T14:40:32.033Z,8.20
2023-02-09T14:43:03.728Z,8.33
2023-02-09T14:45:38.506Z,8.93
2023-02-09T14:48:22.246Z,7.80
2023-02-09T14:50:51.309Z,9.00
2023-02-09T14:53:19.503Z,8.87
2023-02-09T14:55:47.760Z,9.10
2023-02-09T14:58:41.315Z,9.63
2023-02-09T15:01:09.867Z,8.93
2023-02-09T15:03:37.170Z,9.37
2023-02-09T15:06:05.592Z,8.17
2023-02-09T15:08:36.097Z,8.43
2023-02-09T15:11:28.612Z,9.30
2023-02-09T15:14:03.815Z,10.00
2023-02-09T15:16:31.386Z,9.73
2023-02-09T15:18:59.038Z,9.27
2023-02-09T15:21:26.034Z,9.67
2023-02-09T15:23:53.322Z,9.27
2023-02-09T15:26:22.746Z,10.33
2023-02-09T15:28:50.128Z,10.00
2023-02-09T15:31:17.114Z,10.10
2023-02-09T15:33:44.436Z,9.70
2023-02-09T15:36:16.673Z,9.83
2023-02-09T15:38:43.957Z,9.57
2023-02-09T15:41:29.471Z,10.27
2023-02-09T15:44:15.505Z,10.50
2023-02-09T15:47:02.650Z,10.40
2023-02-09T15:49:31.068Z,10.87
2023-02-09T15:51:58.029Z,10.83
2023-02-09T15:54:31.756Z,10.57
2023-02-09T15:57:00.179Z,9.47
2023-02-09T15:59:27.437Z,10.30
2023-02-09T16:01:54.634Z,12.47
2023-02-09T16:04:21.876Z,11.07
2023-02-09T16:06:51.666Z,11.10
2023-02-09T16:09:26.669Z,11.93
2023-02-09T16:11:54.384Z,13.37
2023-02-09T16:14:24.110Z,10.57
2023-02-09T16:16:51.554Z,11.40
2023-02-09T16:19:19.763Z,11.87
2023-02-09T16:21:52.984Z,12.27
2023-02-09T16:24:30.869Z,11.43
2023-02-09T16:27:03.062Z,13.57
2023-02-09T16:29:30.441Z,12.43
2023-02-09T16:31:57.429Z,11.97
2023-02-09T16:34:24.669Z,13.40
2023-02-09T16:36:51.784Z,12.10
2023-02-09T16:39:21.338Z,11.13
2023-02-09T16:41:50.846Z,10.50
2023-02-09T16:44:20.136Z,11.87
2023-02-09T16:46:49.999Z,10.07
2023-02-09T16:49:39.458Z,10.90
2023-02-09T16:52:16.974Z,11.30
2023-02-09T16:54:57.072Z,11.93
2023-02-09T16:57:25.379Z,11.17
2023-02-09T16:59:53.728Z,12.30
2023-02-09T17:02:31.977Z,10.17
2023-02-09T17:05:00.192Z,10.77
2023-02-09T17:07:39.773Z,12.20
2023-02-09T17:10:17.989Z,10.27
2023-02-09T17:12:45.284Z,10.90
2023-02-09T17:15:28.595Z,11.07
2023-02-09T17:18:01.924Z,11.40
2023-02-09T17:20:36.666Z,10.97
2023-02-09T17:23:04.032Z,12.03
2023-02-09T17:25:31.454Z,11.83
2023-02-09T17:27:58.481Z,10.67
2023-02-09T17:30:25.881Z,11.93
2023-02-09T17:33:00.344Z,11.87
2023-02-09T17:35:52.915Z,11.57
2023-02-09T17:38:23.985Z,11.40
2023-02-09T17:40:52.605Z,10.77
2023-02-09T17:43:20.813Z,12.70
2023-02-09T17:45:50.805Z,12.73
2023-02-09T17:48:18.984Z,11.57
2023-02-09T17:50:48.684Z,13.13
2023-02-09T17:53:23.488Z,11.90
2023-02-09T17:55:51.616Z,12.50
2023-02-09T17:58:19.030Z,11.93
2023-02-09T18:00:46.534Z,11.40
2023-02-09T18:03:16.586Z,11.33
2023-02-09T18:05:44.597Z,12.87
2023-02-09T18:08:11.804Z,13.97
2023-02-09T18:10:39.202Z,14.10
2023-02-09T18:13:06.141Z,12.50
2023-02-09T18:15:37.440Z,12.13
2023-02-09T18:18:04.713Z,12.07
2023-02-09T18:20:33.293Z,11.20
2023-02-09T18:23:02.813Z,13.67
2023-02-09T18:25:37.955Z,12.30
2023-02-09T18:28:07.445Z,12.50
2023-02-09T18:30:37.908Z,11.93
2023-02-09T18:33:06.598Z,12.37
2023-02-09T18:35:36.668Z,12.40
2023-02-09T18:38:05.549Z,13.10
2023-02-09T18:40:33.811Z,14.50
2023-02-09T18:43:02.104Z,14.27
2023-02-09T18:45:30.605Z,13.53
2023-02-09T18:47:58.000Z,11.57
2023-02-09T18:50:31.672Z,13.73
2023-02-09T18:53:03.074Z,13.17
2023-02-09T18:55:32.698Z,12.63
2023-02-09T18:58:02.268Z,12.67
2023-02-09T19:00:30.032Z,14.07
2023-02-09T19:02:58.278Z,14.30
2023-02-09T19:05:29.303Z,14.70
2023-02-09T19:07:57.203Z,13.83
2023-02-09T19:10:25.120Z,13.30
2023-02-09T19:12:52.466Z,14.87
2023-02-09T19:15:22.458Z,12.90
2023-02-09T19:17:49.537Z,16.00
2023-02-09T19:20:20.476Z,15.57
2023-02-09T19:22:47.931Z,13.77
2023-02-09T19:25:15.657Z,15.33
2023-02-09T19:27:42.638Z,14.33
2023-02-09T19:30:14.212Z,14.20
2023-02-09T19:32:41.397Z,16.93
2023-02-09T19:35:09.013Z,13.83
2023-02-09T19:37:37.463Z,15.23
2023-02-09T19:40:11.137Z,15.37
2023-02-09T19:42:38.118Z,14.83
2023-02-09T19:45:05.716Z,17.00
2023-02-09T19:47:32.774Z,13.33
2023-02-09T19:50:00.148Z,16.70
2023-02-09T19:52:27.789Z,15.50
2023-02-09T19:54:57.376Z,16.10
2023-02-09T19:57:24.847Z,15.83
2023-02-09T19:59:53.332Z,14.60
2023-02-09T20:02:20.340Z,14.63
2023-02-09T20:04:47.626Z,14.73
2023-02-09T20:07:14.719Z,15.03
2023-02-09T20:09:42.154Z,14.30
2023-02-09T20:12:09.219Z,15.77
2023-02-09T20:14:36.519Z,16.17
2023-02-09T20:17:03.661Z,13.80
2023-02-09T20:19:31.094Z,15.90
2023-02-09T20:21:58.057Z,14.23
2023-02-09T20:24:25.332Z,14.27
2023-02-09T20:26:52.351Z,16.90
2023-02-09T20:29:22.157Z,16.77
2023-02-09T20:31:49.391Z,15.30
2023-02-09T20:34:16.868Z,15.80
2023-02-09T20:36:45.605Z,15.73
2023-02-09T20:39:16.185Z,15.10
2023-02-09T20:42:06.879Z,16.53
2023-02-09T20:44:53.441Z,16.73
2023-02-09T20:47:20.644Z,15.80
2023-02-09T20:49:48.010Z,13.10
2023-02-09T20:52:15.088Z,14.90
2023-02-09T20:54:42.335Z,16.07
2023-02-09T20:57:09.535Z,15.83
2023-02-09T20:59:37.614Z,16.40
2023-02-09T21:02:04.618Z,14.67
2023-02-09T21:04:32.109Z,15.67
2023-02-09T21:07:00.436Z,15.57
2023-02-09T21:09:28.363Z,14.63
2023-02-09T21:11:56.283Z,14.97
2023-02-09T21:14:27.845Z,16.37
2023-02-09T21:16:59.859Z,14.80
2023-02-09T21:19:27.116Z,13.40
2023-02-09T21:21:54.130Z,15.03
2023-02-09T21:24:21.608Z,15.30
2023-02-09T21:26:48.581Z,13.90
2023-02-09T21:29:15.920Z,14.33
2023-02-09T21:31:43.036Z,16.40
2023-02-09T21:34:13.678Z,16.43
2023-02-09T21:36:40.854Z,14.10
2023-02-09T21:39:08.216Z,13.93
2023-02-09T21:41:54.094Z,15.23
2023-02-09T21:44:21.391Z,15.30
2023-02-09T21:46:49.342Z,13.67
2023-02-09T21:49:16.699Z,14.70
2023-02-09T21:51:43.702Z,14.20
2023-02-09T21:54:15.667Z,13.97
2023-02-09T21:56:43.122Z,13.53
2023-02-09T21:59:10.964Z,12.67
2023-02-09T22:01:38.113Z,11.93
2023-02-09T22:04:05.486Z,13.00
2023-02-09T22:06:32.568Z,12.27
2023-02-09T22:09:02.933Z,13.33
2023-02-09T22:11:30.282Z,11.90
2023-02-09T22:13:57.499Z,12.60
2023-02-09T22:16:25.443Z,13.13
2023-02-09T22:18:53.096Z,12.43
2023-02-09T22:21:20.080Z,13.83
2023-02-09T22:23:47.316Z,13.63
2023-02-09T22:26:14.942Z,12.03
2023-02-09T22:28:42.709Z,12.53
2023-02-09T22:31:12.372Z,13.53
2023-02-09T22:33:39.748Z,13.13
2023-02-09T22:36:09.488Z,13.67
2023-02-09T22:38:37.173Z,13.00
2023-02-09T22:41:21.346Z,13.97
2023-02-09T22:43:52.947Z,11.97
2023-02-09T22:46:22.014Z,11.07
2023-02-09T22:48:57.724Z,13.10
2023-02-09T22:51:28.349Z,12.20
2023-02-09T22:53:56.817Z,13.07
2023-02-09T22:56:24.529Z,12.70
2023-02-09T22:58:55.913Z,10.53
2023-02-09T23:01:23.563Z,12.43
2023-02-09T23:03:51.021Z,11.83
2023-02-09T23:06:20.839Z,11.40
2023-02-09T23:08:48.220Z,11.40
2023-02-09T23:11:17.202Z,12.90
2023-02-09T23:13:44.930Z,11.90
2023-02-09T23:16:16.637Z,11.97
2023-02-09T23:18:57.717Z,11.53
2023-02-09T23:21:31.520Z,10.70
2023-02-09T23:23:58.911Z,11.43
2023-02-09T23:26:26.745Z,12.43
2023-02-09T23:28:59.185Z,10.33
2023-02-09T23:31:27.000Z,12.57
2023-02-09T23:33:54.922Z,10.73
2023-02-09T23:36:24.470Z,10.30
2023-02-09T23:39:00.078Z,11.33
2023-02-09T23:41:28.079Z,11.33
2023-02-09T23:43:56.031Z,13.63
2023-02-09T23:46:27.356Z,11.93
2023-02-09T23:48:56.259Z,12.43
2023-02-09T23:51:29.696Z,10.43
2023-02-09T23:54:02.526Z,11.00
2023-02-09T23:56:36.685Z,11.70
2023-02-09T23:59:06.175Z,10.77
